Terminal Aerodrome Forecast
Issued by NWS Cleveland, OH

Home | Current Version | Previous Version | Graphics & Text | Print | Product List | Glossary On
Versions: 1 2 3 4 5 6 7 8 9 10 11 12 13 14 15 16 17
000
FTUS41 KCLE 030912 AAA
TAFTOL
TAF AMD
KTOL 030912Z 0309/0406 00000KT 3SM BR OVC060
      TEMPO 0309/0312 1SM BR
     FM031300 35004KT P6SM OVC060
     FM031800 34006KT P6SM BKN060
     FM032300 23004KT P6SM BKN250=

USA.gov is the U.S. government's official web portal to all federal, state and local government web resources and services.